This is the latest recevied weather packets stored in our database for station/object KI5RAB. If no packets are shown the sender has not sent any weather packets the latest 10 day(s).
| Time | Temp. | Humidity | Pressure | Rain* | Wind** | Luminosity | Snow |
|---|---|---|---|---|---|---|---|
| 1777928574 | 27.22° C | 62% | 1014.4 hPa | 0 mm | - | 308 W/m² | - |
| 1777928271 | 27.22° C | 62% | 1014.4 hPa | 0 mm | - | 276 W/m² | - |
| 1777927969 | 26.67° C | 65% | 1014.5 hPa | 0 mm | - | 372 W/m² | - |
| 1777927667 | 26.67° C | 64% | 1014.5 hPa | 0 mm | - | 235 W/m² | - |
| 1777927365 | 26.67° C | 63% | 1014.8 hPa | 0 mm | - | 196 W/m² | - |
| 1777927064 | 27.22° C | 63% | 1014.8 hPa | 0 mm | - | 230 W/m² | - |
| 1777926761 | 27.22° C | 63% | 1014.7 hPa | 0 mm | - | 333 W/m² | - |
| 1777926461 | 26.67° C | 63% | 1014.9 hPa | 0 mm | - | 319 W/m² | - |
| 1777926158 | 27.22° C | 62% | 1014.7 hPa | 0 mm | - | 281 W/m² | - |
| 1777925855 | 26.67° C | 64% | 1015.1 hPa | 0 mm | - | 335 W/m² | - |
| 1777925552 | 26.67° C | 65% | 1014.9 hPa | 0 mm | - | 348 W/m² | - |
| 1777925250 | 26.67° C | 63% | 1015.2 hPa | 0 mm | - | 298 W/m² | - |
| 1777924946 | 26.67° C | 63% | 1015.1 hPa | 0 mm | - | 239 W/m² | - |
| 1777924642 | 26.67° C | 64% | 1015.4 hPa | 0 mm | - | 240 W/m² | - |
| 1777924339 | 26.67° C | 64% | 1015.5 hPa | 0 mm | - | 189 W/m² | - |
| 1777924036 | 27.22° C | 63% | 1015.5 hPa | 0 mm | - | 298 W/m² | - |
| 1777923732 | 27.22° C | 63% | 1015.5 hPa | 0 mm | - | 238 W/m² | - |
| 1777923428 | 27.22° C | 62% | 1015.5 hPa | 0 mm | - | 298 W/m² | - |
| 1777923126 | 27.22° C | 62% | 1015.6 hPa | 0 mm | - | 338 W/m² | - |
| 1777922824 | 27.78° C | 62% | 1015.9 hPa | 0 mm | - | 236 W/m² | - |
| 1777922522 | 27.22° C | 61% | 1015.7 hPa | 0 mm | - | 365 W/m² | - |
| 1777922220 | 26.67° C | 63% | 1015.9 hPa | 0 mm | - | 423 W/m² | - |
| 1777921916 | 27.22° C | 62% | 1015.8 hPa | 0 mm | - | 243 W/m² | - |
| 1777921612 | 27.78° C | 61% | 1015.7 hPa | 0 mm | - | 619 W/m² | - |
| 1777921309 | 26.67° C | 62% | 1016 hPa | 0 mm | - | 813 W/m² | - |
* Rain latest hour (hover to see other rain measurements)
** Current wind speed in m/s (hover to see current wind gust speed)